Time;durP1;ratioP1;P1;durP2;ratioP2;P2;SDS_P1;SDS_P2;PMS_P1;PMS_P2;Temp;Humidity;BMP_temperature;BMP_pressure;BME280_temperature;BME280_humidity;BME280_pressure;Samples;Min_cycle;Max_cycle;Signal;HPM_P1;HPM_P2
2021/04/08 00:00:30;;;;;;;3.70;1.90;;;3.30;94.80;;;;;;5051181;28;20179;-66
2021/04/08 00:02:55;;;;;;;3.13;1.77;;;3.20;94.90;;;;;;5051630;28;20175;-66
2021/04/08 00:05:21;;;;;;;3.83;1.87;;;3.40;96.20;;;;;;5051286;28;20254;-66
2021/04/08 00:07:46;;;;;;;4.63;1.83;;;3.40;96.70;;;;;;5051092;28;20179;-67
2021/04/08 00:10:13;;;;;;;4.60;2.00;;;3.40;96.20;;;;;;5050884;28;20182;-65
2021/04/08 00:12:39;;;;;;;4.30;2.00;;;3.50;96.80;;;;;;5050825;28;20582;-65
2021/04/08 00:15:07;;;;;;;4.20;2.03;;;3.50;96.90;;;;;;5033459;28;20504;-66
2021/04/08 00:17:33;;;;;;;4.47;2.07;;;3.50;95.90;;;;;;5030342;28;20621;-66
2021/04/08 00:19:58;;;;;;;2.97;2.10;;;3.40;95.80;;;;;;5050856;28;20416;-66
2021/04/08 00:22:24;;;;;;;4.03;2.17;;;3.30;96.60;;;;;;5050805;28;20175;-66
2021/04/08 00:24:50;;;;;;;3.70;2.10;;;3.20;96.70;;;;;;5050796;28;20647;-66
2021/04/08 00:27:15;;;;;;;2.60;2.10;;;3.20;97.70;;;;;;5050664;28;20189;-65
2021/04/08 00:29:41;;;;;;;4.40;2.00;;;3.40;97.90;;;;;;5050795;28;20272;-66
2021/04/08 00:32:07;;;;;;;5.73;2.27;;;3.50;97.50;;;;;;5035037;28;20203;-66
2021/04/08 00:34:32;;;;;;;3.90;2.30;;;3.60;98.20;;;;;;5030708;28;20199;-65
2021/04/08 00:36:58;;;;;;;3.40;1.80;;;3.70;98.00;;;;;;5031078;28;20591;-65
2021/04/08 00:39:23;;;;;;;5.60;2.60;;;3.70;96.90;;;;;;5031181;28;20535;-66
2021/04/08 00:41:49;;;;;;;4.43;2.20;;;3.70;96.50;;;;;;5037222;28;20168;-65
2021/04/08 00:44:15;;;;;;;3.87;2.30;;;3.60;96.90;;;;;;5030851;28;20725;-66
2021/04/08 00:46:40;;;;;;;4.33;2.20;;;3.60;98.30;;;;;;5041051;28;20213;-66
2021/04/08 00:49:06;;;;;;;3.17;2.27;;;3.60;97.00;;;;;;5050383;28;20175;-66
2021/04/08 00:51:32;;;;;;;5.27;2.43;;;3.70;96.80;;;;;;5050520;28;20258;-66
2021/04/08 00:53:57;;;;;;;3.90;2.73;;;3.60;97.10;;;;;;5046620;28;20206;-66
2021/04/08 00:56:24;;;;;;;5.93;2.53;;;3.70;97.30;;;;;;5028057;28;20208;-66
2021/04/08 00:58:50;;;;;;;3.30;2.30;;;3.70;96.70;;;;;;5010537;28;20173;-66
2021/04/08 01:01:17;;;;;;;4.97;2.77;;;3.70;96.70;;;;;;5010640;28;20411;-66
2021/04/08 01:03:42;;;;;;;5.37;2.60;;;3.80;96.60;;;;;;5010367;28;20428;-66
2021/04/08 01:06:08;;;;;;;5.57;3.10;;;3.80;96.60;;;;;;5010657;28;20437;-66
2021/04/08 01:08:35;;;;;;;4.40;3.53;;;3.80;96.60;;;;;;5010539;28;20236;-66
2021/04/08 01:11:01;;;;;;;3.57;2.70;;;3.80;96.40;;;;;;5010586;28;20180;-67
2021/04/08 01:13:27;;;;;;;4.80;2.80;;;3.80;96.70;;;;;;5010386;28;20450;-66
2021/04/08 01:15:54;;;;;;;4.53;2.70;;;3.80;98.20;;;;;;5010309;28;20376;-66
2021/04/08 01:18:44;;;;;;;5.67;3.43;;;3.90;96.30;;;;;;5010423;28;20481;-66
2021/04/08 01:21:29;;;;;;;4.97;3.00;;;3.90;96.50;;;;;;5010226;28;20439;-66
2021/04/08 01:24:33;;;;;;;4.73;2.63;;;3.80;96.40;;;;;;4992642;28;20435;-66
2021/04/08 01:27:13;;;;;;;3.60;2.83;;;3.60;96.70;;;;;;5010525;28;20446;-66
2021/04/08 01:30:07;;;;;;;3.67;2.77;;;3.60;97.60;;;;;;5013584;28;20928;-66
2021/04/08 01:32:38;;;;;;;4.73;2.70;;;3.70;97.10;;;;;;5014523;28;21048;-67
2021/04/08 01:35:05;;;;;;;4.97;3.00;;;3.80;96.60;;;;;;5014262;28;20526;-65
2021/04/08 01:37:39;;;;;;;6.53;3.27;;;3.80;96.50;;;;;;5014411;28;20526;-65
2021/04/08 01:40:07;;;;;;;4.73;3.37;;;3.80;97.10;;;;;;5013715;28;20513;-65
2021/04/08 01:42:33;;;;;;;5.73;3.23;;;3.90;95.60;;;;;;5014021;28;20419;-66
2021/04/08 01:45:01;;;;;;;4.47;3.40;;;3.90;95.90;;;;;;5013684;28;20407;-66
2021/04/08 01:47:29;;;;;;;5.63;3.43;;;3.80;95.10;;;;;;5013661;28;20618;-65
2021/04/08 01:49:56;;;;;;;7.60;3.33;;;3.70;96.00;;;;;;5014008;28;20447;-65
2021/04/08 01:52:23;;;;;;;4.20;3.03;;;3.60;94.70;;;;;;5013654;28;20419;-67
2021/04/08 01:54:55;;;;;;;5.57;3.40;;;3.60;96.80;;;;;;5013815;28;20541;-66
2021/04/08 01:57:23;;;;;;;4.57;2.93;;;3.60;97.40;;;;;;5033241;28;20453;-67
2021/04/08 01:59:50;;;;;;;5.07;3.10;;;3.60;97.70;;;;;;5053538;28;20402;-67
2021/04/08 02:02:16;;;;;;;5.40;2.63;;;3.60;97.10;;;;;;5053597;28;20437;-65
2021/04/08 02:04:45;;;;;;;5.30;2.87;;;3.70;98.20;;;;;;5053534;28;20742;-65
2021/04/08 02:07:12;;;;;;;5.87;3.23;;;3.60;98.50;;;;;;5053764;28;22411;-67
2021/04/08 02:09:39;;;;;;;4.63;3.20;;;3.50;98.30;;;;;;5053251;28;20500;-67
2021/04/08 02:12:07;;;;;;;6.77;3.33;;;3.50;98.80;;;;;;5053422;28;20425;-66
2021/04/08 02:14:36;;;;;;;11.77;2.97;;;3.50;98.10;;;;;;5033817;28;20861;-66
2021/04/08 02:17:02;;;;;;;5.70;3.30;;;3.60;97.20;;;;;;5053334;28;20430;-65
2021/04/08 02:19:30;;;;;;;5.13;3.10;;;3.60;96.50;;;;;;5053423;28;20483;-67
2021/04/08 02:21:58;;;;;;;4.80;2.83;;;3.50;97.80;;;;;;5053274;28;20414;-66
2021/04/08 02:24:25;;;;;;;6.90;3.37;;;3.60;97.70;;;;;;5040652;28;20422;-66
2021/04/08 02:26:51;;;;;;;4.60;2.87;;;3.60;97.20;;;;;;5052871;28;20500;-66
2021/04/08 02:29:19;;;;;;;6.33;3.07;;;3.50;97.60;;;;;;5045940;28;20500;-66
2021/04/08 02:31:46;;;;;;;4.53;3.20;;;3.50;99.00;;;;;;5032763;28;20421;-68
2021/04/08 02:34:11;;;;;;;5.27;2.87;;;3.60;97.60;;;;;;5047141;28;20915;-66
2021/04/08 02:36:38;;;;;;;3.30;3.00;;;3.60;97.40;;;;;;5053144;28;20495;-65
2021/04/08 02:39:13;;;;;;;7.80;3.60;;;3.60;97.10;;;;;;5052302;28;20578;-66
2021/04/08 02:41:47;;;;;;;6.03;3.10;;;3.60;97.20;;;;;;5052752;28;20424;-65
2021/04/08 02:44:14;;;;;;;5.90;3.20;;;3.50;97.40;;;;;;5052703;28;20417;-66
2021/04/08 02:46:40;;;;;;;6.27;3.50;;;3.50;96.80;;;;;;5033362;28;20444;-66
2021/04/08 02:49:07;;;;;;;5.80;3.60;;;3.50;96.40;;;;;;5052720;28;20911;-65
2021/04/08 02:51:54;;;;;;;5.40;3.83;;;3.40;95.80;;;;;;5052326;28;20420;-67
2021/04/08 02:54:32;;;;;;;6.37;3.53;;;3.30;95.60;;;;;;5052495;28;20460;-66
2021/04/08 02:57:00;;;;;;;6.77;3.87;;;3.30;95.70;;;;;;5046265;28;20804;-66
2021/04/08 02:59:44;;;;;;;9.67;4.20;;;3.30;93.80;;;;;;5032421;28;20982;-66
2021/04/08 03:02:13;;;;;;;10.17;3.60;;;3.30;94.50;;;;;;5043374;28;20410;-66
2021/04/08 03:04:46;;;;;;;6.07;4.00;;;3.20;94.70;;;;;;5052545;28;20422;-66
2021/04/08 03:07:13;;;;;;;6.33;3.70;;;3.20;93.40;;;;;;5051132;28;20779;-66
2021/04/08 03:09:41;;;;;;;7.70;3.73;;;3.10;94.10;;;;;;5052482;28;20420;-65
2021/04/08 03:12:13;;;;;;;7.70;3.80;;;3.20;94.40;;;;;;5052565;28;20495;-65
2021/04/08 03:14:42;;;;;;;4.87;3.30;;;3.10;94.90;;;;;;5051904;28;20809;-66
2021/04/08 03:17:09;;;;;;;5.83;3.90;;;3.00;94.50;;;;;;5052313;28;20449;-66
2021/04/08 03:19:37;;;;;;;5.03;3.60;;;3.00;94.90;;;;;;5052043;28;20880;-66
2021/04/08 03:22:04;;;;;;;7.43;3.90;;;2.90;95.10;;;;;;5052014;28;20409;-66
2021/04/08 03:24:32;;;;;;;5.43;3.63;;;2.80;95.40;;;;;;5052150;28;20512;-65
2021/04/08 03:26:58;;;;;;;8.30;4.43;;;2.80;95.70;;;;;;5051925;28;20975;-65
2021/04/08 03:29:25;;;;;;;5.20;3.87;;;2.80;95.90;;;;;;5051922;28;20445;-66
2021/04/08 03:31:51;;;;;;;6.37;3.83;;;2.60;95.90;;;;;;5051715;28;20418;-65
2021/04/08 03:34:17;;;;;;;8.20;3.80;;;2.60;95.60;;;;;;5051704;28;20452;-66
2021/04/08 03:36:43;;;;;;;10.33;3.93;;;2.60;96.00;;;;;;5051661;28;20437;-66
2021/04/08 03:39:10;;;;;;;5.87;4.17;;;2.50;95.80;;;;;;5051890;28;20930;-66
2021/04/08 03:41:40;;;;;;;6.73;4.03;;;2.50;95.70;;;;;;5051666;28;20478;-66
2021/04/08 03:44:08;;;;;;;5.07;3.53;;;2.30;95.60;;;;;;5051598;28;20421;-65
2021/04/08 03:46:45;;;;;;;7.50;3.53;;;2.20;96.40;;;;;;5034559;28;20432;-66
2021/04/08 03:49:14;;;;;;;7.20;4.03;;;2.20;97.10;;;;;;5049134;28;20553;-66
2021/04/08 03:51:41;;;;;;;6.87;3.93;;;2.10;98.00;;;;;;5030984;28;20410;-66
2021/04/08 03:54:09;;;;;;;6.93;4.20;;;2.10;97.90;;;;;;5031217;28;20452;-66
2021/04/08 03:56:50;;;;;;;8.47;4.63;;;2.10;97.90;;;;;;5048818;28;20422;-66
2021/04/08 03:59:18;;;;;;;6.97;4.67;;;2.10;98.20;;;;;;5047319;28;20425;-66
2021/04/08 04:01:45;;;;;;;9.67;3.80;;;2.10;97.80;;;;;;5031482;28;20403;-66
2021/04/08 04:04:12;;;;;;;8.17;4.87;;;2.10;97.60;;;;;;5031613;28;20426;-66
2021/04/08 04:06:41;;;;;;;9.33;4.50;;;2.00;97.80;;;;;;5041636;28;20429;-67
2021/04/08 04:09:10;;;;;;;5.23;4.10;;;2.00;98.20;;;;;;5050908;28;20409;-66
2021/04/08 04:11:48;;;;;;;9.73;4.70;;;2.00;98.20;;;;;;5044315;28;20532;-66
2021/04/08 04:14:16;;;;;;;6.27;4.60;;;2.00;98.90;;;;;;5031260;28;20454;-65
2021/04/08 04:16:45;;;;;;;6.77;4.70;;;2.10;99.00;;;;;;5031370;28;20418;-65
2021/04/08 04:19:12;;;;;;;8.23;4.87;;;2.10;98.30;;;;;;5031252;28;20418;-66
2021/04/08 04:21:38;;;;;;;5.60;4.80;;;2.10;98.10;;;;;;5031348;28;20414;-66
2021/04/08 04:24:05;;;;;;;11.27;4.90;;;2.10;98.90;;;;;;5031108;28;20438;-67
2021/04/08 04:26:31;;;;;;;6.47;4.30;;;2.10;98.90;;;;;;5031049;28;20918;-64
2021/04/08 04:28:57;;;;;;;6.50;4.37;;;2.10;98.30;;;;;;5032110;28;20489;-65
2021/04/08 04:31:22;;;;;;;5.80;4.80;;;2.00;98.90;;;;;;5050600;28;20637;-65
2021/04/08 04:33:48;;;;;;;8.27;4.90;;;2.00;99.00;;;;;;5050630;28;20683;-65
2021/04/08 04:36:14;;;;;;;7.10;4.77;;;1.90;99.00;;;;;;5050565;28;20187;-66
2021/04/08 04:38:39;;;;;;;6.87;4.67;;;1.90;99.80;;;;;;5050807;28;20190;-67
2021/04/08 04:41:05;;;;;;;7.90;4.90;;;1.90;99.80;;;;;;5050684;28;20175;-66
2021/04/08 04:43:31;;;;;;;7.53;5.03;;;1.80;99.90;;;;;;5029357;28;20175;-67
2021/04/08 04:45:57;;;;;;;12.03;6.40;;;1.90;99.90;;;;;;5030852;28;20170;-67
2021/04/08 04:48:23;;;;;;;17.03;7.40;;;1.90;99.90;;;;;;5044577;28;20167;-65
2021/04/08 04:50:51;;;;;;;10.67;6.40;;;1.90;99.90;;;;;;5050725;28;20289;-66
2021/04/08 04:53:17;;;;;;;10.67;6.20;;;1.80;99.90;;;;;;5050613;28;20687;-66
2021/04/08 04:55:42;;;;;;;8.23;6.03;;;1.70;99.90;;;;;;5050753;28;20461;-66
2021/04/08 04:58:08;;;;;;;11.30;5.83;;;1.70;99.90;;;;;;5043461;28;20271;-66
2021/04/08 05:00:33;;;;;;;8.20;5.50;;;1.70;99.90;;;;;;5048425;28;20211;-65
2021/04/08 05:02:59;;;;;;;9.40;5.60;;;1.70;99.90;;;;;;5052529;28;20618;-65
2021/04/08 05:05:24;;;;;;;7.27;5.63;;;1.80;99.90;;;;;;5046478;28;20198;-65
2021/04/08 05:07:50;;;;;;;6.50;5.00;;;1.80;99.90;;;;;;5045437;28;20175;-65
2021/04/08 05:10:16;;;;;;;8.87;5.20;;;1.80;99.90;;;;;;5055388;28;20569;-66
2021/04/08 05:12:41;;;;;;;8.07;5.87;;;1.80;99.90;;;;;;5047984;28;20215;-62
2021/04/08 05:15:08;;;;;;;13.23;5.30;;;1.90;99.90;;;;;;5045582;28;20202;-63
2021/04/08 05:17:34;;;;;;;10.93;6.17;;;1.90;99.90;;;;;;5045159;28;20264;-64
2021/04/08 05:19:59;;;;;;;11.43;5.67;;;1.80;99.90;;;;;;5054914;28;20453;-65
2021/04/08 05:22:25;;;;;;;7.87;6.53;;;1.80;99.90;;;;;;5054786;28;20684;-65
2021/04/08 05:24:57;;;;;;;17.93;5.93;;;1.90;99.90;;;;;;5051965;28;20629;-65
2021/04/08 05:27:30;;;;;;;11.83;5.97;;;1.90;99.90;;;;;;5050298;28;20801;-65
2021/04/08 05:29:55;;;;;;;12.67;6.70;;;2.00;99.90;;;;;;5053233;28;20471;-64
2021/04/08 05:32:21;;;;;;;16.63;6.60;;;1.90;99.90;;;;;;5054773;28;20748;-65
2021/04/08 05:34:47;;;;;;;16.43;6.77;;;2.00;99.90;;;;;;5043557;28;20295;-65
2021/04/08 05:37:12;;;;;;;11.00;6.43;;;2.00;99.90;;;;;;5053215;28;20179;-66
2021/04/08 05:39:38;;;;;;;17.40;7.23;;;2.00;99.90;;;;;;5054683;28;20185;-65
2021/04/08 05:42:04;;;;;;;10.63;6.27;;;2.10;99.90;;;;;;5043290;28;20241;-65
2021/04/08 05:44:29;;;;;;;8.33;5.80;;;2.10;99.90;;;;;;5051555;28;20214;-63
2021/04/08 05:46:55;;;;;;;12.63;5.80;;;2.20;99.90;;;;;;5054174;28;20175;-66
2021/04/08 05:49:21;;;;;;;11.93;6.33;;;2.30;99.90;;;;;;5033101;28;20329;-67
2021/04/08 05:51:46;;;;;;;11.37;6.83;;;2.40;99.90;;;;;;5047988;28;20255;-66
2021/04/08 05:54:12;;;;;;;15.03;6.17;;;2.50;99.90;;;;;;5054002;28;20242;-65
2021/04/08 05:56:37;;;;;;;15.80;7.10;;;2.60;99.90;;;;;;5045675;28;20317;-67
2021/04/08 05:59:03;;;;;;;11.10;6.03;;;2.60;99.90;;;;;;5053125;28;20222;-67
2021/04/08 06:01:29;;;;;;;12.97;6.50;;;2.70;99.90;;;;;;5034030;28;20306;-64
2021/04/08 06:03:54;;;;;;;12.13;6.70;;;2.80;99.90;;;;;;5049016;28;20202;-69
2021/04/08 06:06:21;;;;;;;12.50;7.20;;;2.90;99.90;;;;;;5042850;28;20195;-68
2021/04/08 06:08:47;;;;;;;9.90;5.90;;;2.90;99.90;;;;;;5050740;28;20179;-67
2021/04/08 06:11:12;;;;;;;13.37;6.37;;;3.00;99.90;;;;;;5038394;28;20927;-67
2021/04/08 06:13:38;;;;;;;10.30;6.27;;;3.00;99.90;;;;;;5043005;28;20286;-70
2021/04/08 06:16:04;;;;;;;11.17;6.90;;;2.90;99.80;;;;;;5053552;28;20179;-65
2021/04/08 06:18:30;;;;;;;15.83;7.30;;;3.00;99.90;;;;;;5052154;28;20417;-67
2021/04/08 06:20:55;;;;;;;11.50;6.90;;;3.10;99.90;;;;;;5036951;28;20419;-68
2021/04/08 06:23:21;;;;;;;13.23;7.33;;;3.20;99.90;;;;;;5039964;28;20179;-66
2021/04/08 06:25:47;;;;;;;13.67;8.37;;;3.20;99.80;;;;;;5053649;28;20495;-68
2021/04/08 06:28:12;;;;;;;14.90;9.57;;;3.30;99.80;;;;;;5053686;28;20179;-66
2021/04/08 06:30:38;;;;;;;13.23;7.07;;;3.30;99.60;;;;;;5053304;28;20240;-67
2021/04/08 06:33:05;;;;;;;15.33;6.97;;;3.40;99.30;;;;;;5051392;28;20652;-67
2021/04/08 06:35:31;;;;;;;12.83;8.27;;;3.40;99.60;;;;;;5033498;28;20203;-68
2021/04/08 06:37:56;;;;;;;9.80;7.20;;;3.60;99.30;;;;;;5033879;28;20440;-68
2021/04/08 06:40:23;;;;;;;11.87;6.97;;;3.80;98.40;;;;;;5052722;28;20171;-67
2021/04/08 06:42:53;;;;;;;17.37;7.20;;;3.80;97.20;;;;;;5047812;28;20187;-68
2021/04/08 06:45:22;;;;;;;10.10;8.00;;;4.00;96.60;;;;;;5034660;28;20427;-68
2021/04/08 06:47:58;;;;;;;13.23;7.83;;;4.10;95.80;;;;;;5047803;28;20425;-68
2021/04/08 06:50:25;;;;;;;10.43;6.97;;;4.10;95.00;;;;;;5047062;28;20410;-67
2021/04/08 06:52:51;;;;;;;11.20;7.43;;;4.20;92.00;;;;;;5052374;28;20405;-67
2021/04/08 06:55:19;;;;;;;11.50;6.80;;;4.30;90.70;;;;;;5044351;28;20561;-67
2021/04/08 06:57:46;;;;;;;10.50;7.10;;;4.50;90.10;;;;;;5042972;28;20504;-67
2021/04/08 07:00:12;;;;;;;13.17;7.13;;;4.60;88.80;;;;;;5032907;28;20804;-66
2021/04/08 07:02:39;;;;;;;10.87;5.93;;;4.60;86.10;;;;;;5032999;28;20424;-66
2021/04/08 07:05:08;;;;;;;9.67;6.87;;;4.60;84.70;;;;;;5032910;28;20414;-66
2021/04/08 07:07:34;;;;;;;12.07;6.77;;;4.60;85.10;;;;;;5032691;28;20438;-66
2021/04/08 07:10:00;;;;;;;13.50;7.03;;;4.60;84.10;;;;;;5032673;28;20784;-66
2021/04/08 07:12:26;;;;;;;8.83;6.97;;;4.60;84.80;;;;;;5024894;28;20190;-67
2021/04/08 07:14:56;;;;;;;12.87;7.17;;;4.60;83.70;;;;;;5032422;28;20215;-68
2021/04/08 07:17:21;;;;;;;12.17;6.90;;;4.60;85.00;;;;;;5031447;28;20995;-68
2021/04/08 07:19:48;;;;;;;10.33;6.70;;;4.70;83.10;;;;;;5032545;28;20497;-66
2021/04/08 07:22:14;;;;;;;9.80;6.83;;;4.70;83.30;;;;;;5032377;28;20182;-65
2021/04/08 07:24:48;;;;;;;11.30;6.87;;;4.80;83.40;;;;;;5032221;28;20410;-65
2021/04/08 07:27:17;;;;;;;14.03;7.47;;;4.90;83.90;;;;;;5032383;28;20484;-67
2021/04/08 07:29:44;;;;;;;10.43;7.33;;;4.80;83.50;;;;;;5032314;28;21055;-66
2021/04/08 07:32:15;;;;;;;11.67;7.10;;;5.00;83.40;;;;;;5032223;28;20422;-66
2021/04/08 07:34:44;;;;;;;15.03;6.80;;;4.90;80.30;;;;;;5032299;28;20454;-68
2021/04/08 07:37:11;;;;;;;12.97;7.63;;;4.90;79.90;;;;;;5031964;28;20422;-67
2021/04/08 07:39:37;;;;;;;12.30;7.33;;;4.90;79.70;;;;;;5031913;28;20422;-68
2021/04/08 07:42:14;;;;;;;18.43;7.03;;;5.10;80.90;;;;;;5032158;28;20443;-67
2021/04/08 07:44:54;;;;;;;10.83;6.50;;;5.20;78.80;;;;;;5031939;28;20406;-67
2021/04/08 07:47:23;;;;;;;10.67;6.17;;;5.30;78.30;;;;;;5030580;28;20449;-67
2021/04/08 07:49:51;;;;;;;12.83;6.37;;;5.40;76.90;;;;;;5031920;28;20418;-67
2021/04/08 07:52:24;;;;;;;11.63;5.67;;;5.40;74.60;;;;;;5032439;28;20426;-67
2021/04/08 07:55:10;;;;;;;8.10;6.13;;;5.40;75.40;;;;;;5031450;28;20968;-67
2021/04/08 07:58:03;;;;;;;10.20;5.60;;;5.50;73.60;;;;;;5031867;28;21001;-65
2021/04/08 08:00:43;;;;;;;8.17;5.47;;;5.50;71.60;;;;;;5031696;28;20433;-68
2021/04/08 08:03:19;;;;;;;9.67;5.60;;;5.50;72.10;;;;;;5032096;28;20450;-66
2021/04/08 08:05:46;;;;;;;11.50;6.03;;;5.50;71.50;;;;;;5031929;28;20964;-67
2021/04/08 08:08:19;;;;;;;10.60;5.50;;;5.50;71.80;;;;;;5031870;28;20452;-66
2021/04/08 08:10:59;;;;;;;9.13;4.70;;;5.50;72.10;;;;;;5031586;28;20462;-65
2021/04/08 08:13:26;;;;;;;8.90;5.13;;;5.60;72.30;;;;;;5031420;28;20457;-68
2021/04/08 08:15:54;;;;;;;16.13;6.50;;;5.60;71.20;;;;;;5031494;28;20548;-68
2021/04/08 08:18:36;;;;;;;13.00;5.93;;;5.60;71.10;;;;;;5031784;28;20501;-68
2021/04/08 08:21:07;;;;;;;6.90;3.90;;;5.80;71.50;;;;;;5031141;28;20509;-65
2021/04/08 08:23:41;;;;;;;8.50;4.47;;;5.80;69.40;;;;;;5031659;28;20418;-69
2021/04/08 08:26:27;;;;;;;8.90;4.50;;;6.00;69.10;;;;;;5031366;28;20411;-68
2021/04/08 08:29:01;;;;;;;7.90;4.70;;;6.10;69.00;;;;;;5030469;28;20974;-68
2021/04/08 08:31:53;;;;;;;7.17;4.50;;;6.20;68.80;;;;;;5031596;28;20410;-68
2021/04/08 08:34:30;;;;;;;6.57;4.20;;;6.20;66.90;;;;;;5031447;28;20959;-66
2021/04/08 08:37:08;;;;;;;8.13;4.57;;;6.30;67.70;;;;;;5030868;28;20406;-65
2021/04/08 08:39:34;;;;;;;8.07;3.00;;;6.20;67.80;;;;;;5031359;28;20446;-68
2021/04/08 08:42:03;;;;;;;5.33;3.13;;;6.30;66.80;;;;;;5031015;28;20740;-66
2021/04/08 08:44:29;;;;;;;8.30;3.50;;;6.30;66.50;;;;;;5033499;28;20486;-68
2021/04/08 08:47:17;;;;;;;7.40;3.67;;;6.30;64.60;;;;;;5051462;28;20828;-66
2021/04/08 08:50:02;;;;;;;5.80;4.00;;;6.50;67.00;;;;;;5033044;28;20406;-69
2021/04/08 08:52:35;;;;;;;6.33;3.77;;;6.70;64.70;;;;;;5051364;28;20412;-68
2021/04/08 08:55:06;;;;;;;6.97;3.20;;;6.80;63.60;;;;;;5051216;28;20462;-66
2021/04/08 08:57:32;;;;;;;10.73;4.17;;;7.00;63.10;;;;;;5045472;28;20465;-68
2021/04/08 08:59:58;;;;;;;6.87;3.40;;;6.90;60.20;;;;;;5031272;28;20415;-66
2021/04/08 09:02:24;;;;;;;9.27;3.90;;;6.70;61.40;;;;;;5030839;28;20790;-67
2021/04/08 09:04:51;;;;;;;7.73;3.70;;;6.80;62.30;;;;;;5031235;28;20415;-66
2021/04/08 09:07:17;;;;;;;6.83;3.83;;;6.80;60.80;;;;;;5032783;28;20174;-68
2021/04/08 09:09:54;;;;;;;5.47;3.77;;;6.80;60.60;;;;;;5050746;28;20424;-68
2021/04/08 09:12:21;;;;;;;7.57;3.30;;;7.00;60.60;;;;;;5050466;28;20629;-67
2021/04/08 09:14:48;;;;;;;7.90;3.40;;;7.20;60.00;;;;;;5033053;28;20449;-68
2021/04/08 09:17:42;;;;;;;6.73;3.47;;;7.30;60.20;;;;;;5050857;28;20413;-68
2021/04/08 09:20:11;;;;;;;5.77;3.27;;;7.60;58.90;;;;;;5051076;28;20440;-67
2021/04/08 09:22:55;;;;;;;7.57;3.37;;;7.60;58.10;;;;;;5051008;28;20449;-66
2021/04/08 09:25:26;;;;;;;3.27;2.57;;;7.70;57.20;;;;;;5050571;28;21008;-66
2021/04/08 09:27:56;;;;;;;5.73;2.83;;;7.60;55.70;;;;;;5050712;28;20422;-69
2021/04/08 09:33:41;;;;;;;5.70;3.20;;;7.50;55.80;;;;;;5049523;28;20408;-66
2021/04/08 09:36:21;;;;;;;4.23;2.90;;;7.50;57.30;;;;;;5050068;28;20428;-69
2021/04/08 09:38:56;;;;;;;6.63;3.07;;;7.70;56.80;;;;;;5049763;28;20401;-67
2021/04/08 09:41:46;;;;;;;5.80;2.90;;;7.80;56.30;;;;;;5050677;28;20412;-69
2021/04/08 09:44:14;;;;;;;7.20;2.87;;;7.80;55.10;;;;;;5050305;28;20504;-68
2021/04/08 09:46:42;;;;;;;3.20;1.67;;;7.90;54.70;;;;;;5033188;28;20410;-69
2021/04/08 09:49:09;;;;;;;3.07;1.80;;;7.80;50.80;;;;;;5050892;28;20966;-69
2021/04/08 09:51:44;;;;;;;5.37;2.37;;;7.70;50.00;;;;;;5054266;28;20425;-68
2021/04/08 09:54:15;;;;;;;8.50;3.40;;;7.70;50.60;;;;;;5053612;28;20452;-68
2021/04/08 09:56:52;;;;;;;5.97;2.83;;;7.70;51.10;;;;;;5054306;28;20500;-66
2021/04/08 09:59:19;;;;;;;6.77;2.87;;;7.80;51.90;;;;;;5035609;28;20462;-67
2021/04/08 10:01:46;;;;;;;5.43;2.73;;;7.80;51.30;;;;;;5034165;28;20920;-67
2021/04/08 10:04:24;;;;;;;5.83;2.43;;;7.90;52.10;;;;;;5033980;28;20924;-70
2021/04/08 10:07:07;;;;;;;4.03;2.30;;;7.70;51.40;;;;;;5034049;28;20433;-70
2021/04/08 10:09:33;;;;;;;4.40;2.30;;;7.90;52.50;;;;;;5052379;28;20551;-69
2021/04/08 10:11:59;;;;;;;4.33;2.33;;;8.10;52.30;;;;;;5054109;28;20492;-67
2021/04/08 10:14:28;;;;;;;5.03;2.50;;;8.50;51.30;;;;;;5053936;28;20449;-70
2021/04/08 10:17:02;;;;;;;3.90;2.13;;;8.60;50.50;;;;;;5053803;28;20448;-68
2021/04/08 10:19:32;;;;;;;4.90;2.43;;;8.60;49.80;;;;;;5052929;28;20417;-67
2021/04/08 10:21:58;;;;;;;7.77;2.80;;;8.70;49.80;;;;;;5052643;28;20445;-69
2021/04/08 10:24:24;;;;;;;4.13;2.70;;;8.90;49.20;;;;;;5053763;28;20433;-69
2021/04/08 10:26:50;;;;;;;5.23;2.33;;;9.20;49.60;;;;;;5053721;28;20420;-71
2021/04/08 10:29:30;;;;;;;3.70;1.80;;;9.30;48.30;;;;;;5053604;28;20253;-68
2021/04/08 10:31:56;;;;;;;4.77;2.70;;;9.50;46.10;;;;;;5053680;28;20640;-69
2021/04/08 10:34:21;;;;;;;4.20;2.17;;;9.40;47.90;;;;;;5033983;28;20496;-68
2021/04/08 10:36:57;;;;;;;3.83;2.03;;;9.40;45.90;;;;;;5053449;28;20178;-68
2021/04/08 10:39:31;;;;;;;4.77;2.00;;;9.30;44.90;;;;;;5052585;28;20174;-68
2021/04/08 10:41:59;;;;;;;2.30;1.77;;;9.30;43.70;;;;;;5053451;28;20414;-67
2021/04/08 10:44:30;;;;;;;7.90;2.40;;;9.00;44.90;;;;;;5052328;28;20417;-69
2021/04/08 10:47:00;;;;;;;3.07;1.93;;;8.60;45.50;;;;;;5035439;28;20516;-66
2021/04/08 10:49:29;;;;;;;3.70;2.07;;;8.50;45.20;;;;;;5053397;28;20548;-67
2021/04/08 10:51:56;;;;;;;3.37;2.53;;;8.40;46.00;;;;;;5053212;28;20448;-67
2021/04/08 10:54:27;;;;;;;6.23;2.50;;;8.50;46.60;;;;;;5053259;28;20442;-69
2021/04/08 10:56:53;;;;;;;6.07;2.57;;;8.60;46.40;;;;;;5053206;28;20413;-67
2021/04/08 10:59:23;;;;;;;3.23;1.83;;;8.70;45.80;;;;;;5053175;28;20445;-68
2021/04/08 11:01:50;;;;;;;3.20;2.33;;;8.80;45.00;;;;;;5051470;28;20544;-68
2021/04/08 11:04:21;;;;;;;11.77;2.60;;;8.80;44.40;;;;;;5053075;28;20418;-65
2021/04/08 11:06:48;;;;;;;4.03;1.87;;;8.60;44.90;;;;;;5052707;28;20524;-67
2021/04/08 11:09:25;;;;;;;3.27;2.20;;;8.70;45.80;;;;;;5052856;28;20470;-66
2021/04/08 11:11:51;;;;;;;2.43;1.90;;;8.80;45.40;;;;;;5034644;28;20421;-66
2021/04/08 11:14:27;;;;;;;6.43;2.57;;;9.10;46.00;;;;;;5052724;28;20464;-67
2021/04/08 11:16:57;;;;;;;3.50;2.00;;;9.50;46.10;;;;;;5052782;28;20920;-72
2021/04/08 11:19:23;;;;;;;4.23;2.00;;;9.60;44.40;;;;;;5052615;28;20432;-68
2021/04/08 11:21:50;;;;;;;5.17;2.57;;;9.60;43.30;;;;;;5052500;28;20401;-68
2021/04/08 11:24:16;;;;;;;7.33;2.20;;;9.50;43.80;;;;;;5052627;28;20421;-71
2021/04/08 11:26:47;;;;;;;4.90;2.20;;;9.60;44.80;;;;;;5017793;28;20425;-68
2021/04/08 11:29:26;;;;;;;4.97;2.43;;;9.60;44.70;;;;;;5052383;28;20551;-67
2021/04/08 11:32:09;;;;;;;5.63;2.13;;;9.60;44.70;;;;;;5052573;28;20918;-64
2021/04/08 11:34:45;;;;;;;10.80;2.70;;;9.50;43.80;;;;;;5051627;28;20453;-68
2021/04/08 11:37:12;;;;;;;4.27;2.40;;;9.30;43.30;;;;;;5052255;28;20884;-69
2021/04/08 11:39:38;;;;;;;6.67;2.60;;;9.20;43.90;;;;;;5052413;28;20966;-69
2021/04/08 11:42:21;;;;;;;7.53;3.10;;;9.30;44.70;;;;;;5052240;28;20537;-66
2021/04/08 11:44:48;;;;;;;8.63;2.77;;;9.50;43.80;;;;;;5052304;28;20516;-68
2021/04/08 11:47:22;;;;;;;6.70;2.90;;;9.90;43.60;;;;;;5052208;28;20428;-66
2021/04/08 11:49:55;;;;;;;9.67;2.83;;;10.30;42.70;;;;;;5051687;28;20417;-69
2021/04/08 11:52:27;;;;;;;3.43;2.77;;;10.70;42.10;;;;;;5051539;28;20189;-69
2021/04/08 11:55:08;;;;;;;4.67;2.40;;;11.10;41.30;;;;;;5052160;28;20248;-67
2021/04/08 11:57:35;;;;;;;4.77;2.90;;;11.30;41.00;;;;;;5048913;28;20216;-67
2021/04/08 12:00:12;;;;;;;12.03;3.00;;;11.20;40.70;;;;;;5052004;28;20183;-68
2021/04/08 12:02:40;;;;;;;4.87;3.10;;;11.00;41.30;;;;;;5051474;28;20224;-69
2021/04/08 12:05:12;;;;;;;5.17;3.23;;;10.80;41.40;;;;;;5052283;28;20167;-69
2021/04/08 12:07:46;;;;;;;5.07;3.23;;;10.60;40.60;;;;;;5051010;28;20171;-66
2021/04/08 12:10:29;;;;;;;5.77;3.00;;;10.40;41.60;;;;;;5052132;28;20175;-67
2021/04/08 12:13:06;;;;;;;5.57;2.57;;;10.40;41.50;;;;;;5050307;28;20218;-66
2021/04/08 12:15:37;;;;;;;5.60;3.57;;;10.70;41.70;;;;;;5051627;28;20510;-69
2021/04/08 12:18:17;;;;;;;5.83;3.30;;;10.60;41.80;;;;;;5051822;28;20621;-70
2021/04/08 12:20:44;;;;;;;4.67;3.47;;;10.70;41.90;;;;;;5051400;28;20166;-66
2021/04/08 12:23:11;;;;;;;6.23;3.30;;;10.70;42.00;;;;;;5051670;28;20167;-68
2021/04/08 12:25:46;;;;;;;10.83;4.07;;;10.70;42.20;;;;;;5051596;28;20550;-68
2021/04/08 12:28:13;;;;;;;4.70;3.23;;;10.20;42.40;;;;;;5050342;28;20555;-66
2021/04/08 12:30:59;;;;;;;10.27;3.63;;;10.50;42.70;;;;;;5051732;28;20567;-68
2021/04/08 12:33:33;;;;;;;5.87;2.50;;;10.70;42.30;;;;;;5051391;28;20447;-68
2021/04/08 12:36:01;;;;;;;6.13;3.80;;;10.70;41.40;;;;;;5051026;28;20198;-69
2021/04/08 12:38:27;;;;;;;5.73;3.57;;;10.40;42.10;;;;;;5051220;28;20228;-67
2021/04/08 12:40:54;;;;;;;6.20;4.03;;;10.50;42.50;;;;;;5051425;28;20456;-70
2021/04/08 12:43:20;;;;;;;5.73;3.47;;;10.60;42.90;;;;;;5051184;28;20984;-67
2021/04/08 12:45:46;;;;;;;9.23;3.50;;;11.10;41.40;;;;;;5049958;28;20179;-67
2021/04/08 12:48:13;;;;;;;5.23;3.20;;;11.20;41.00;;;;;;5050913;28;20174;-67
2021/04/08 12:50:41;;;;;;;6.37;3.70;;;11.60;41.30;;;;;;5051114;28;20186;-69
2021/04/08 12:53:07;;;;;;;5.80;3.47;;;11.80;39.50;;;;;;5051034;28;20179;-69
2021/04/08 12:55:33;;;;;;;8.13;2.90;;;11.80;39.90;;;;;;5050870;28;20198;-66
2021/04/08 12:57:59;;;;;;;6.10;3.47;;;11.90;40.80;;;;;;5046184;28;20207;-69
2021/04/08 13:00:26;;;;;;;8.63;3.83;;;12.00;40.30;;;;;;5030652;28;20254;-69
2021/04/08 13:02:52;;;;;;;5.83;3.50;;;11.90;39.10;;;;;;5031274;28;20644;-70
2021/04/08 13:05:18;;;;;;;5.47;3.20;;;11.70;40.20;;;;;;5030863;28;20198;-65
2021/04/08 13:07:44;;;;;;;4.73;3.50;;;11.70;40.20;;;;;;5031021;28;20184;-66